createdAt,value
2023-01-02T00:02:23.398Z,31.67
2023-01-02T00:05:10.200Z,33.28
2023-01-02T00:07:43.311Z,31.73
2023-01-02T00:10:30.170Z,31.05
2023-01-02T00:13:03.290Z,29.50
2023-01-02T00:15:50.260Z,30.63
2023-01-02T00:18:23.320Z,31.95
2023-01-02T00:21:14.215Z,30.45
2023-01-02T00:23:47.315Z,30.85
2023-01-02T00:26:34.204Z,33.63
2023-01-02T00:29:15.190Z,32.33
2023-01-02T00:32:09.215Z,32.88
2023-01-02T00:34:56.196Z,30.88
2023-01-02T00:37:29.315Z,31.52
2023-01-02T00:40:20.216Z,31.45
2023-01-02T00:42:53.327Z,32.92
2023-01-02T00:45:42.213Z,32.80
2023-01-02T00:48:15.315Z,31.83
2023-01-02T00:51:02.218Z,30.92
2023-01-02T00:53:42.208Z,32.10
2023-01-02T00:56:36.191Z,30.88
2023-01-02T00:59:23.212Z,34.00
2023-01-02T01:02:06.304Z,31.85
2023-01-02T01:05:00.223Z,30.77
2023-01-02T01:07:47.212Z,31.80
2023-01-02T01:10:20.320Z,32.05
2023-01-02T01:13:07.251Z,30.48
2023-01-02T01:15:42.313Z,31.23
2023-01-02T01:18:29.213Z,42.60
2023-01-02T01:21:02.320Z,40.00
2023-01-02T01:23:56.227Z,33.20
2023-01-02T01:26:43.202Z,31.90
2023-01-02T01:29:26.200Z,32.38
2023-01-02T01:32:13.223Z,40.90
2023-01-02T01:34:46.376Z,35.78
2023-01-02T01:37:33.233Z,33.30
2023-01-02T01:40:06.319Z,55.55
2023-01-02T01:42:59.016Z,44.60
2023-01-02T01:45:35.012Z,43.78
2023-01-02T01:48:24.215Z,43.50
2023-01-02T01:50:57.331Z,33.28
2023-01-02T01:53:45.238Z,39.55
2023-01-02T01:56:27.227Z,37.40
2023-01-02T01:59:23.243Z,31.98
2023-01-02T02:02:10.401Z,39.40
2023-01-02T02:04:44.617Z,38.95
2023-01-02T02:07:31.233Z,38.00
2023-01-02T02:10:15.325Z,33.42
2023-01-02T02:13:02.235Z,42.05
2023-01-02T02:16:09.304Z,39.92
2023-01-02T02:19:34.239Z,55.08
2023-01-02T02:22:58.259Z,46.90
2023-01-02T02:26:29.232Z,49.35
2023-01-02T02:29:21.353Z,58.33
2023-01-02T02:32:26.235Z,35.60
2023-01-02T02:35:18.251Z,40.25
2023-01-02T02:38:19.245Z,41.65
2023-01-02T02:41:02.243Z,31.25
2023-01-02T02:44:29.249Z,39.65
2023-01-02T02:47:25.225Z,29.10
2023-01-02T02:50:17.251Z,30.13
2023-01-02T02:53:15.244Z,30.42
2023-01-02T02:56:13.251Z,28.00
2023-01-02T02:59:01.235Z,29.77
2023-01-02T03:01:44.365Z,28.85
2023-01-02T03:04:38.248Z,28.17
2023-01-02T03:07:34.264Z,28.45
2023-01-02T03:10:27.253Z,30.75
2023-01-02T03:13:41.400Z,29.85
2023-01-02T03:16:41.306Z,29.20
2023-01-02T03:19:28.258Z,33.72
2023-01-02T03:22:31.273Z,29.10
2023-01-02T03:25:21.247Z,29.98
2023-01-02T03:27:57.422Z,30.08
2023-01-02T03:30:46.287Z,29.63
2023-01-02T03:33:25.026Z,27.33
2023-01-02T03:36:16.273Z,33.55
2023-01-02T03:39:07.353Z,29.08
2023-01-02T03:42:06.258Z,30.60
2023-01-02T03:44:49.371Z,30.52
2023-01-02T03:47:46.277Z,29.08
2023-01-02T03:50:33.280Z,40.22
2023-01-02T03:53:27.295Z,33.08
2023-01-02T03:56:33.290Z,29.02
2023-01-02T03:59:43.384Z,27.67
2023-01-02T04:02:45.384Z,30.50
2023-01-02T04:05:34.402Z,27.85
2023-01-02T04:08:33.274Z,29.50
2023-01-02T04:11:16.273Z,28.98
2023-01-02T04:14:28.291Z,28.27
2023-01-02T04:17:24.290Z,26.45
2023-01-02T04:20:29.308Z,28.45
2023-01-02T04:23:23.283Z,29.20
2023-01-02T04:26:05.417Z,30.73
2023-01-02T04:28:52.344Z,29.20
2023-01-02T04:31:35.410Z,28.83
2023-01-02T04:34:24.287Z,28.35
2023-01-02T04:36:57.389Z,29.83
2023-01-02T04:39:45.296Z,30.08
2023-01-02T04:42:20.395Z,30.67
2023-01-02T04:45:07.307Z,40.35
2023-01-02T04:47:40.417Z,28.75
2023-01-02T04:50:27.297Z,31.95
2023-01-02T04:53:07.317Z,47.95
2023-01-02T04:56:01.289Z,41.85
2023-01-02T04:58:56.321Z,29.98
2023-01-02T05:01:43.373Z,27.75
2023-01-02T05:04:23.353Z,30.58
2023-01-02T05:07:17.315Z,29.80
2023-01-02T05:10:11.299Z,31.33
2023-01-02T05:13:05.309Z,31.20
2023-01-02T05:15:59.351Z,31.00
2023-01-02T05:18:46.319Z,29.25
2023-01-02T05:21:45.362Z,30.75
2023-01-02T05:24:40.312Z,32.47
2023-01-02T05:27:27.338Z,30.40
2023-01-02T05:30:07.313Z,27.42
2023-01-02T05:33:01.332Z,27.08
2023-01-02T05:35:48.303Z,27.80
2023-01-02T05:38:21.434Z,25.98
2023-01-02T05:41:09.345Z,26.67
2023-01-02T05:43:44.432Z,28.00
2023-01-02T05:46:31.386Z,29.17
2023-01-02T05:49:11.324Z,27.13
2023-01-02T05:52:05.336Z,28.60
2023-01-02T05:54:59.320Z,30.00
2023-01-02T05:57:53.332Z,28.20
2023-01-02T06:00:47.319Z,29.40
2023-01-02T06:03:41.390Z,29.15
2023-01-02T06:06:38.334Z,26.52
2023-01-02T06:09:25.336Z,28.20
2023-01-02T06:11:58.423Z,27.50
2023-01-02T06:14:45.340Z,33.97
2023-01-02T06:17:18.427Z,25.83
2023-01-02T06:20:08.352Z,36.42
2023-01-02T06:22:41.448Z,27.10
2023-01-02T06:25:28.331Z,35.00
2023-01-02T06:28:08.331Z,31.63
2023-01-02T06:31:02.361Z,44.58
2023-01-02T06:33:49.337Z,25.83
2023-01-02T06:36:25.519Z,27.17
2023-01-02T06:39:12.329Z,26.70
2023-01-02T06:41:52.339Z,26.52
2023-01-02T06:44:39.334Z,26.55
2023-01-02T06:47:12.557Z,26.27
2023-01-02T06:49:59.363Z,25.90
2023-01-02T06:52:34.531Z,27.83
2023-01-02T06:55:21.353Z,25.63
2023-01-02T06:57:54.461Z,27.10
2023-01-02T07:00:41.429Z,27.38
2023-01-02T07:03:14.478Z,27.60
2023-01-02T07:06:01.352Z,26.85
2023-01-02T07:08:41.370Z,30.40
2023-01-02T07:11:37.352Z,27.02
2023-01-02T07:14:24.362Z,27.77
2023-01-02T07:16:58.571Z,26.60
2023-01-02T07:19:51.438Z,29.30
2023-01-02T07:22:26.481Z,28.83
2023-01-02T07:25:14.395Z,28.38
2023-01-02T07:27:48.932Z,39.10
2023-01-02T07:30:37.370Z,37.28
2023-01-02T07:33:10.454Z,36.40
2023-01-02T07:35:57.377Z,34.92
2023-01-02T07:38:40.378Z,27.17
2023-01-02T07:41:37.370Z,31.42
2023-01-02T07:44:24.367Z,32.42
2023-01-02T07:47:04.353Z,36.03
2023-01-02T07:49:58.375Z,34.03
2023-01-02T07:52:45.381Z,39.28
2023-01-02T07:55:18.481Z,34.65
2023-01-02T07:58:05.382Z,36.05
2023-01-02T08:00:45.413Z,32.03
2023-01-02T08:03:39.417Z,33.25
2023-01-02T08:06:27.380Z,40.58
2023-01-02T08:09:00.535Z,31.38
2023-01-02T08:11:47.368Z,32.05
2023-01-02T08:14:23.560Z,36.88
2023-01-02T08:17:10.394Z,29.77
2023-01-02T08:19:43.521Z,46.47
2023-01-02T08:22:37.354Z,44.55
2023-01-02T08:25:24.367Z,33.03
2023-01-02T08:27:57.509Z,34.63
2023-01-02T08:30:47.418Z,35.00
2023-01-02T08:33:20.585Z,29.83
2023-01-02T08:36:08.379Z,33.55
2023-01-02T08:38:43.421Z,35.28
2023-01-02T08:41:47.396Z,39.15
2023-01-02T08:44:20.498Z,35.35
2023-01-02T08:47:07.409Z,32.53
2023-01-02T08:49:47.404Z,30.17
2023-01-02T08:52:41.412Z,42.45
2023-01-02T08:55:28.354Z,33.67
2023-01-02T08:58:01.525Z,30.40
2023-01-02T09:00:48.401Z,34.00
2023-01-02T09:03:28.501Z,30.98
2023-01-02T09:06:19.812Z,32.88
2023-01-02T09:09:07.313Z,33.75
2023-01-02T09:11:59.530Z,36.10
2023-01-02T09:14:39.413Z,34.63
2023-01-02T09:17:26.412Z,37.80
2023-01-02T09:20:06.395Z,31.63
2023-01-02T09:23:00.391Z,31.83
2023-01-02T09:25:54.411Z,32.45
2023-01-02T09:28:49.396Z,30.50
2023-01-02T09:31:43.476Z,31.67
2023-01-02T09:34:30.421Z,31.67
2023-01-02T09:37:10.472Z,32.55
2023-01-02T09:39:57.409Z,32.42
2023-01-02T09:42:37.404Z,30.17
2023-01-02T09:45:31.422Z,31.83
2023-01-02T09:48:24.408Z,29.83
2023-01-02T09:51:07.742Z,28.40
2023-01-02T09:53:54.428Z,31.13
2023-01-02T09:56:34.123Z,30.10
2023-01-02T09:59:30.459Z,29.00
2023-01-02T10:02:20.556Z,30.08
2023-01-02T10:05:41.449Z,28.77
2023-01-02T10:08:40.412Z,32.85
2023-01-02T10:11:35.454Z,32.50
2023-01-02T10:14:42.058Z,34.53
2023-01-02T10:17:35.448Z,27.80
2023-01-02T10:20:29.461Z,30.50
2023-01-02T10:23:30.444Z,31.08
2023-01-02T10:26:30.441Z,28.08
2023-01-02T10:29:40.421Z,33.20
2023-01-02T10:32:29.450Z,28.00
2023-01-02T10:35:21.467Z,32.92
2023-01-02T10:38:15.442Z,33.22
2023-01-02T10:41:09.444Z,35.25
2023-01-02T10:44:09.529Z,29.92
2023-01-02T10:47:03.668Z,31.40
2023-01-02T10:49:57.443Z,32.38
2023-01-02T10:52:55.440Z,31.60
2023-01-02T10:55:52.493Z,31.45
2023-01-02T10:58:48.448Z,31.23
2023-01-02T11:01:43.539Z,31.98
2023-01-02T11:04:44.918Z,31.35
2023-01-02T11:07:33.447Z,31.48
2023-01-02T11:10:14.478Z,29.42
2023-01-02T11:13:11.510Z,30.13
2023-01-02T11:16:07.586Z,29.98
2023-01-02T11:18:45.285Z,30.95
2023-01-02T11:21:43.519Z,29.27
2023-01-02T11:24:27.074Z,33.33
2023-01-02T11:27:16.448Z,28.40
2023-01-02T11:29:52.639Z,29.83
2023-01-02T11:32:48.598Z,31.13
2023-01-02T11:35:45.657Z,32.25
2023-01-02T11:38:53.459Z,28.40
2023-01-02T11:42:06.513Z,25.67
2023-01-02T11:45:23.530Z,26.05
2023-01-02T11:48:25.526Z,29.67
2023-01-02T11:50:59.617Z,28.95
2023-01-02T11:53:52.475Z,24.90
2023-01-02T11:56:43.531Z,33.17
2023-01-02T11:59:49.522Z,28.58
2023-01-02T12:02:56.574Z,28.40
2023-01-02T12:06:14.470Z,25.45
2023-01-02T12:09:23.521Z,25.20
2023-01-02T12:12:44.480Z,27.17
2023-01-02T12:15:20.600Z,27.23
2023-01-02T12:18:48.478Z,33.85
2023-01-02T12:21:34.495Z,27.60
2023-01-02T12:24:43.528Z,28.33
2023-01-02T12:27:55.556Z,25.98
2023-01-02T12:30:29.620Z,27.33
2023-01-02T12:33:25.465Z,27.40
2023-01-02T12:36:24.469Z,26.50
2023-01-02T12:39:23.522Z,25.48
2023-01-02T12:42:34.594Z,28.20
2023-01-02T12:45:35.517Z,26.52
2023-01-02T12:48:11.616Z,26.90
2023-01-02T12:51:16.501Z,27.90
2023-01-02T12:54:19.486Z,33.25
2023-01-02T12:57:10.492Z,28.17
2023-01-02T13:00:27.547Z,29.67
2023-01-02T13:03:49.616Z,26.58
2023-01-02T13:06:48.558Z,26.35
2023-01-02T13:09:49.524Z,29.90
2023-01-02T13:12:49.528Z,29.90
2023-01-02T13:15:44.555Z,40.47
2023-01-02T13:18:34.643Z,214.00
2023-01-02T13:21:46.546Z,150.25
2023-01-02T13:24:28.620Z,197.00
2023-01-02T13:27:17.526Z,92.05
2023-01-02T13:29:52.635Z,44.00
2023-01-02T13:32:39.536Z,35.20
2023-01-02T13:35:17.617Z,33.20
2023-01-02T13:38:04.553Z,32.03
2023-01-02T13:40:38.663Z,31.98
2023-01-02T13:43:31.546Z,29.15
2023-01-02T13:46:37.019Z,28.50
2023-01-02T13:49:33.523Z,28.15
2023-01-02T13:52:35.571Z,28.05
2023-01-02T13:55:29.415Z,28.77
2023-01-02T13:58:22.647Z,27.40
2023-01-02T14:01:32.611Z,24.58
2023-01-02T14:04:25.524Z,29.08
2023-01-02T14:07:56.576Z,27.98
2023-01-02T14:10:54.563Z,23.80
2023-01-02T14:13:55.549Z,26.20
2023-01-02T14:16:31.683Z,27.48
2023-01-02T14:19:21.558Z,26.55
2023-01-02T14:21:55.018Z,23.70
2023-01-02T14:24:53.626Z,23.73
2023-01-02T14:27:42.609Z,28.38
2023-01-02T14:30:20.654Z,27.10
2023-01-02T14:33:08.564Z,27.67
2023-01-02T14:35:53.536Z,26.20
2023-01-02T14:39:07.562Z,24.02
2023-01-02T14:42:27.654Z,25.92
2023-01-02T14:45:25.537Z,26.48
2023-01-02T14:48:03.723Z,28.55
2023-01-02T14:50:52.618Z,29.52
2023-01-02T14:53:31.670Z,31.38
2023-01-02T14:56:21.555Z,29.25
2023-01-02T14:59:02.717Z,32.70
2023-01-02T15:01:47.592Z,33.58
2023-01-02T15:04:45.875Z,34.45
2023-01-02T15:07:31.534Z,36.92
2023-01-02T15:10:25.667Z,31.52
2023-01-02T15:13:15.610Z,30.48
2023-01-02T15:16:01.645Z,34.17
2023-01-02T15:18:40.749Z,33.42
2023-01-02T15:21:29.656Z,35.90
2023-01-02T15:24:10.637Z,38.92
2023-01-02T15:27:07.564Z,41.33
2023-01-02T15:29:59.443Z,36.88
2023-01-02T15:32:34.698Z,36.88
2023-01-02T15:35:37.319Z,39.30
2023-01-02T15:38:10.686Z,35.83
2023-01-02T15:40:57.551Z,37.35
2023-01-02T15:43:58.628Z,35.42
2023-01-02T15:46:52.654Z,40.33
2023-01-02T15:49:40.608Z,45.15
2023-01-02T15:52:30.820Z,43.63
2023-01-02T15:55:23.632Z,43.13
2023-01-02T15:58:07.651Z,40.72
2023-01-02T16:00:54.669Z,40.63
2023-01-02T16:04:02.223Z,57.08
2023-01-02T16:06:47.634Z,58.08
2023-01-02T16:09:33.732Z,58.70
2023-01-02T16:12:24.625Z,49.92
2023-01-02T16:15:06.714Z,49.95
2023-01-02T16:17:46.601Z,51.55
2023-01-02T16:20:28.809Z,61.40
2023-01-02T16:23:12.656Z,72.22
2023-01-02T16:25:54.825Z,73.75
2023-01-02T16:28:37.154Z,49.97
2023-01-02T16:31:21.791Z,45.03
2023-01-02T16:34:19.628Z,37.38
2023-01-02T16:37:21.634Z,42.60
2023-01-02T16:39:56.741Z,35.88
2023-01-02T16:42:47.635Z,33.85
2023-01-02T16:45:20.724Z,34.85
2023-01-02T16:48:09.634Z,33.90
2023-01-02T16:50:55.633Z,31.42
2023-01-02T16:53:49.631Z,32.72
2023-01-02T16:56:37.666Z,34.30
2023-01-02T16:59:17.639Z,35.50
2023-01-02T17:02:11.666Z,33.80
2023-01-02T17:05:05.643Z,37.33
2023-01-02T17:07:52.663Z,51.42
2023-01-02T17:10:26.366Z,73.88
2023-01-02T17:13:13.703Z,68.30
2023-01-02T17:15:46.742Z,57.95
2023-01-02T17:18:33.600Z,52.35
2023-01-02T17:21:06.744Z,59.47
2023-01-02T17:24:00.656Z,43.97
2023-01-02T17:26:54.667Z,41.00
2023-01-02T17:29:48.659Z,40.95
2023-01-02T17:32:39.579Z,44.63
2023-01-02T17:35:13.808Z,45.85
2023-01-02T17:38:00.657Z,44.10
2023-01-02T17:40:40.652Z,49.97
2023-01-02T17:43:27.616Z,39.63
2023-01-02T17:46:30.324Z,43.22
2023-01-02T17:49:08.642Z,37.50
2023-01-02T17:51:48.793Z,41.20
2023-01-02T17:54:28.658Z,36.97
2023-01-02T17:57:10.971Z,33.67
2023-01-02T17:59:51.680Z,26.95
2023-01-02T18:02:31.913Z,23.90
2023-01-02T18:05:12.666Z,29.42
2023-01-02T18:07:52.759Z,27.83
2023-01-02T18:10:33.452Z,26.55
2023-01-02T18:13:13.756Z,30.80
2023-01-02T18:15:53.672Z,29.08
2023-01-02T18:18:34.715Z,26.85
2023-01-02T18:21:14.673Z,26.95
2023-01-02T18:24:12.677Z,25.88
2023-01-02T18:27:12.679Z,26.45
2023-01-02T18:30:24.759Z,27.33
2023-01-02T18:33:13.685Z,26.77
2023-01-02T18:36:14.667Z,30.83
2023-01-02T18:39:32.696Z,25.67
2023-01-02T18:42:41.688Z,28.33
2023-01-02T18:45:35.678Z,31.08
2023-01-02T18:48:25.680Z,28.08
2023-01-02T18:51:05.774Z,28.27
2023-01-02T18:53:57.680Z,28.83
2023-01-02T18:56:39.681Z,28.02
2023-01-02T18:59:42.701Z,33.42
2023-01-02T19:02:37.745Z,37.92
2023-01-02T19:05:47.679Z,38.30
2023-01-02T19:08:50.697Z,35.20
2023-01-02T19:12:05.720Z,44.42
2023-01-02T19:15:00.739Z,41.83
2023-01-02T19:17:47.675Z,35.30
2023-01-02T19:20:20.806Z,34.50
2023-01-02T19:23:27.675Z,34.78
2023-01-02T19:26:00.841Z,31.70
2023-01-02T19:29:05.694Z,32.47
2023-01-02T19:32:07.796Z,33.83
2023-01-02T19:35:01.744Z,31.73
2023-01-02T19:37:40.927Z,37.83
2023-01-02T19:40:29.676Z,36.15
2023-01-02T19:43:02.820Z,38.67
2023-01-02T19:45:49.815Z,47.10
2023-01-02T19:48:23.764Z,57.85
2023-01-02T19:51:10.719Z,49.58
2023-01-02T19:53:43.798Z,52.33
2023-01-02T19:56:31.740Z,42.40
2023-01-02T19:59:09.429Z,44.80
2023-01-02T20:02:00.824Z,47.58
2023-01-02T20:04:41.734Z,49.78
2023-01-02T20:07:31.724Z,45.72
2023-01-02T20:10:11.737Z,40.50
2023-01-02T20:13:05.742Z,37.47
2023-01-02T20:15:52.781Z,42.88
2023-01-02T20:18:25.819Z,40.90
2023-01-02T20:21:12.750Z,41.92
2023-01-02T20:23:47.354Z,40.08
2023-01-02T20:26:36.732Z,30.98
2023-01-02T20:29:16.726Z,30.98
2023-01-02T20:32:10.739Z,30.55
2023-01-02T20:34:58.739Z,28.30
2023-01-02T20:37:31.820Z,30.63
2023-01-02T20:40:18.707Z,30.80
2023-01-02T20:42:51.800Z,34.58
2023-01-02T20:45:38.712Z,34.95
2023-01-02T20:48:11.772Z,32.67
2023-01-02T20:50:58.728Z,30.85
2023-01-02T20:53:31.783Z,29.70
2023-01-02T20:56:18.746Z,30.90
2023-01-02T20:58:58.757Z,31.75
2023-01-02T21:01:52.812Z,30.13
2023-01-02T21:04:39.765Z,37.15
2023-01-02T21:07:19.750Z,33.58
2023-01-02T21:10:07.731Z,29.42
2023-01-02T21:13:05.732Z,28.13
2023-01-02T21:15:58.761Z,30.08
2023-01-02T21:18:45.755Z,30.30
2023-01-02T21:21:33.717Z,26.02
2023-01-02T21:24:06.853Z,27.55
2023-01-02T21:26:53.735Z,27.70
2023-01-02T21:29:35.791Z,27.85
2023-01-02T21:32:22.744Z,27.63
2023-01-02T21:35:06.066Z,28.70
2023-01-02T21:37:52.950Z,29.85
2023-01-02T21:40:32.745Z,30.38
2023-01-02T21:43:19.730Z,34.22
2023-01-02T21:45:59.767Z,31.00
2023-01-02T21:48:56.056Z,29.83
2023-01-02T21:51:43.801Z,28.52
2023-01-02T21:54:16.816Z,36.15
2023-01-02T21:57:03.775Z,30.20
2023-01-02T21:59:36.846Z,35.95
2023-01-02T22:02:32.808Z,34.45
2023-01-02T22:05:08.843Z,34.13
2023-01-02T22:07:55.796Z,35.67
2023-01-02T22:10:38.318Z,34.03
2023-01-02T22:13:24.784Z,29.63
2023-01-02T22:15:57.893Z,28.98
2023-01-02T22:18:44.741Z,32.60
2023-01-02T22:21:17.859Z,28.85
2023-01-02T22:24:04.800Z,28.95
2023-01-02T22:26:59.792Z,29.88
2023-01-02T22:32:40.954Z,28.15
2023-01-02T22:35:27.814Z,27.15
2023-01-02T22:38:07.803Z,30.92
2023-01-02T22:41:01.787Z,28.70
2023-01-02T22:43:51.838Z,30.42
2023-01-02T22:46:36.963Z,29.70
2023-01-02T22:49:28.768Z,30.85
2023-01-02T22:52:07.472Z,29.15
2023-01-02T22:54:54.767Z,29.15
2023-01-02T22:57:27.856Z,28.40
2023-01-02T23:00:15.807Z,28.15
2023-01-02T23:02:56.810Z,28.17
2023-01-02T23:05:43.787Z,29.83
2023-01-02T23:08:16.915Z,26.73
2023-01-02T23:11:03.798Z,27.63
2023-01-02T23:13:37.921Z,26.85
2023-01-02T23:16:42.840Z,29.80
2023-01-02T23:19:22.764Z,29.25
2023-01-02T23:22:16.757Z,27.83
2023-01-02T23:25:10.762Z,27.13
2023-01-02T23:28:04.751Z,25.88
2023-01-02T23:30:51.815Z,28.98
2023-01-02T23:33:24.854Z,30.48
2023-01-02T23:36:12.771Z,30.88
2023-01-02T23:38:45.852Z,27.73
2023-01-02T23:41:32.751Z,27.02
2023-01-02T23:44:05.981Z,27.58
2023-01-02T23:46:53.837Z,27.00
2023-01-02T23:49:33.787Z,27.80
2023-01-02T23:52:20.779Z,27.92
2023-01-02T23:55:00.783Z,26.65
2023-01-02T23:57:54.824Z,28.23
